Página principal
METAR-TAF:

METAR-TAF

Aeroportos :

Pequim, China

Aeroporto Internacional de Pequim

latitude: 39-56N, longitude: 116-17E, altura: 55 m

Observação actual do tempo

O boletim foi feito há 34 minutos, às 18:30 UTC
Vento 2 kt com direcção variável
Temperatura 22°C
Humidade 94%
Pressão 1011 hPa
Visibilidade 10 km ou mais
sem nuvens abaixo de 1500 metros e sem cumulonimbus

METAR: ZBAA 281830Z VRB01MPS CAVOK 22/21 Q1011 NOSIG

Hora: 03:04 (19:04 UTC)

Previsão

O boletim foi feito há 3 horas e 44 minutos, às 15:20 UTC
Previsão válida de 28 às 18 UTC a 29 às 18 UTC
Vento 8 kt de sul
Visibilidade 10 km ou mais
sem nuvens abaixo de 1500 metros e sem cumulonimbus

TAF: ZBAA 281520Z 2818/2918 18004MPS CAVOK TX31/2907Z TN22/2821Z

Observações e previsões do tempo de mais de 4000 aeroportos (mensagens METAR e TAF).

As estações disponíveis são os pontos amarelos e vermelhos sobre o mapa.

Mova o rato sobre o mapa para ver o nome da estação.

Depois clique no ponto para visualizar as observações e previsões meteorológicas.

Para alterar o mapa : clique nos botões verdes com uma cruz preta para aumentar o zoom; no botão verde com uma pitada de zoom; ou nas setas verdes para mapas adjacentes.


METAR-TAF: